Time;durP1;ratioP1;P1;durP2;ratioP2;P2;SDS_P1;SDS_P2;PMS_P1;PMS_P2;Temp;Humidity;BMP_temperature;BMP_pressure;BME280_temperature;BME280_humidity;BME280_pressure;Samples;Min_cycle;Max_cycle;Signal;HPM_P1;HPM_P2
2022/05/29 00:01:56;;;;;;;17.30;3.03;;;10.60;99.90;;;;;;5038215;28;20037;-81
2022/05/29 00:04:22;;;;;;;17.92;2.88;;;10.60;99.90;;;;;;5051578;28;20162;-81
2022/05/29 00:06:51;;;;;;;16.90;2.40;;;10.60;99.90;;;;;;5049595;28;20479;-81
2022/05/29 00:09:33;;;;;;;13.73;2.42;;;10.60;99.90;;;;;;5050200;28;20423;-82
2022/05/29 00:12:00;;;;;;;11.48;2.95;;;10.60;99.90;;;;;;5051069;28;20102;-81
2022/05/29 00:14:27;;;;;;;7.90;2.15;;;10.60;99.90;;;;;;5050785;28;20041;-81
2022/05/29 00:16:52;;;;;;;14.32;2.50;;;10.60;99.90;;;;;;5059308;28;20063;-81
2022/05/29 00:19:18;;;;;;;14.10;3.03;;;10.60;99.90;;;;;;5051939;28;20041;-80
2022/05/29 00:21:44;;;;;;;18.58;3.10;;;10.60;99.90;;;;;;5044409;28;20049;-81
2022/05/29 00:24:09;;;;;;;13.88;3.03;;;10.60;99.90;;;;;;5047185;28;20041;-80
2022/05/29 00:26:36;;;;;;;16.35;3.10;;;10.60;99.90;;;;;;5034714;28;20048;-81
2022/05/29 00:29:02;;;;;;;11.70;2.97;;;10.60;99.90;;;;;;5050315;28;20037;-80
2022/05/29 00:31:28;;;;;;;14.25;2.92;;;10.60;99.90;;;;;;5049831;28;20396;-81
2022/05/29 00:34:00;;;;;;;14.73;3.17;;;10.60;99.90;;;;;;5048341;28;20199;-81
2022/05/29 00:36:32;;;;;;;16.95;3.83;;;10.70;99.90;;;;;;5050372;28;20045;-82
2022/05/29 00:38:58;;;;;;;14.15;3.10;;;10.70;99.90;;;;;;5049424;28;20103;-82
2022/05/29 00:41:29;;;;;;;18.25;3.55;;;10.70;99.90;;;;;;5049008;28;20064;-82
2022/05/29 00:44:09;;;;;;;16.70;3.75;;;10.60;99.90;;;;;;5050190;28;20122;-82
2022/05/29 00:46:46;;;;;;;15.98;3.83;;;10.70;99.90;;;;;;5049714;28;20447;-81
2022/05/29 00:49:14;;;;;;;15.35;3.00;;;10.70;99.90;;;;;;5049979;28;20494;-81
2022/05/29 00:51:59;;;;;;;17.58;3.28;;;10.70;99.90;;;;;;5048591;28;20095;-81
2022/05/29 00:54:26;;;;;;;13.93;2.60;;;10.70;99.90;;;;;;5041533;28;20065;-80
2022/05/29 00:57:02;;;;;;;16.63;2.97;;;10.70;99.90;;;;;;5028577;28;20054;-81
2022/05/29 00:59:31;;;;;;;20.13;3.22;;;10.70;99.90;;;;;;5046034;28;20029;-81
2022/05/29 01:01:59;;;;;;;14.32;2.72;;;10.70;99.90;;;;;;5036909;28;20146;-81
2022/05/29 01:04:24;;;;;;;16.10;3.15;;;10.80;99.90;;;;;;5049261;28;20218;-81
2022/05/29 01:06:52;;;;;;;15.45;3.53;;;10.70;99.90;;;;;;5046922;28;20136;-81
2022/05/29 01:09:17;;;;;;;15.80;3.80;;;10.70;99.90;;;;;;5049461;28;20052;-81
2022/05/29 01:12:11;;;;;;;11.02;3.33;;;10.80;99.90;;;;;;5048472;28;20048;-80
2022/05/29 01:14:42;;;;;;;18.08;3.30;;;10.80;99.90;;;;;;5043222;28;20052;-80
2022/05/29 01:17:14;;;;;;;;;;;10.80;99.90;;;;;;5045761;28;20044;-80
2022/05/29 01:19:45;;;;;;;14.30;2.80;;;10.80;99.90;;;;;;5043383;28;19921;-80
2022/05/29 01:22:44;;;;;;;6.80;1.88;;;10.70;99.90;;;;;;5042124;28;20037;-80
2022/05/29 01:25:28;;;;;;;14.77;2.75;;;10.80;99.90;;;;;;5035754;28;20053;-81
2022/05/29 01:28:16;;;;;;;12.23;2.47;;;10.80;99.90;;;;;;5046400;28;20491;-79
2022/05/29 01:30:51;;;;;;;7.68;2.30;;;10.80;99.90;;;;;;5029457;28;20041;-80
2022/05/29 01:33:55;;;;;;;15.40;2.65;;;10.80;99.90;;;;;;5044684;28;20124;-81
2022/05/29 01:36:32;;;;;;;13.00;3.20;;;10.70;99.90;;;;;;5048776;28;20080;-80
2022/05/29 01:39:26;;;;;;;15.05;2.60;;;10.80;99.90;;;;;;5045002;28;20057;-81
2022/05/29 01:41:56;;;;;;;18.25;3.80;;;10.70;99.90;;;;;;5037084;28;20511;-81
2022/05/29 01:44:50;;;;;;;19.58;3.60;;;10.70;99.90;;;;;;5043702;28;20053;-81
2022/05/29 01:47:22;;;;;;;18.52;3.25;;;10.70;99.90;;;;;;5049266;28;20041;-81
2022/05/29 01:49:51;;;;;;;16.60;3.40;;;10.70;99.90;;;;;;5050088;28;20068;-80
2022/05/29 01:52:40;;;;;;;8.95;2.60;;;10.80;99.90;;;;;;5046306;28;20133;-79
2022/05/29 01:55:39;;;;;;;16.38;3.35;;;10.80;99.90;;;;;;5043806;28;20144;-80
2022/05/29 01:58:12;;;;;;;19.45;2.75;;;10.80;99.90;;;;;;5037888;28;20450;-80
2022/05/29 02:00:37;;;;;;;12.52;2.22;;;10.80;99.90;;;;;;5049790;28;20041;-80
2022/05/29 02:03:10;;;;;;;13.65;3.22;;;10.80;99.90;;;;;;5044959;28;20071;-80
2022/05/29 02:05:50;;;;;;;15.00;2.97;;;10.80;99.90;;;;;;5049106;28;20049;-80
2022/05/29 02:08:21;;;;;;;20.88;3.55;;;10.90;99.90;;;;;;5044413;28;20075;-80
2022/05/29 02:10:54;;;;;;;9.80;2.70;;;10.90;99.90;;;;;;5047194;28;20507;-80
2022/05/29 02:13:31;;;;;;;13.18;2.47;;;10.90;99.90;;;;;;5047076;28;20174;-79
2022/05/29 02:16:07;;;;;;;12.02;2.50;;;10.90;99.90;;;;;;5049171;28;20111;-81
2022/05/29 02:18:45;;;;;;;7.68;2.28;;;10.90;99.90;;;;;;5047799;28;20084;-79
2022/05/29 02:21:19;;;;;;;10.55;2.38;;;10.90;99.90;;;;;;5048493;28;20045;-81
2022/05/29 02:23:49;;;;;;;8.38;2.30;;;10.90;99.90;;;;;;5050448;28;20055;-80
2022/05/29 02:26:23;;;;;;;11.75;2.33;;;10.90;99.90;;;;;;5046778;28;20123;-81
2022/05/29 02:28:55;;;;;;;8.63;2.17;;;10.90;99.90;;;;;;5049597;28;20044;-81
2022/05/29 02:31:44;;;;;;;18.00;3.17;;;10.90;99.90;;;;;;5052042;28;20041;-80
2022/05/29 02:34:43;;;;;;;16.70;2.45;;;11.00;99.90;;;;;;5049040;28;20501;-80
2022/05/29 02:37:36;;;;;;;10.55;2.40;;;10.90;99.90;;;;;;5035484;28;20357;-82
2022/05/29 02:40:08;;;;;;;13.25;2.85;;;10.90;99.90;;;;;;5047671;28;20036;-81
2022/05/29 02:43:10;;;;;;;10.63;2.85;;;10.90;99.90;;;;;;5047066;28;20048;-81
2022/05/29 02:45:40;;;;;;;14.73;3.20;;;10.90;99.90;;;;;;5047736;28;20116;-81
2022/05/29 02:48:27;;;;;;;15.23;2.97;;;10.80;99.90;;;;;;5047946;28;20045;-82
2022/05/29 02:51:02;;;;;;;20.77;3.55;;;10.90;99.90;;;;;;5047543;28;20053;-81
2022/05/29 02:53:28;;;;;;;16.73;2.60;;;10.80;99.90;;;;;;5047683;28;20053;-82
2022/05/29 02:55:54;;;;;;;11.45;2.70;;;10.80;99.90;;;;;;5045905;28;20053;-81
2022/05/29 02:58:26;;;;;;;14.55;2.83;;;10.80;99.90;;;;;;5047271;28;20466;-81
2022/05/29 03:01:16;;;;;;;11.77;2.58;;;10.80;99.90;;;;;;5049105;28;20033;-81
2022/05/29 03:04:15;;;;;;;13.40;2.45;;;10.80;99.90;;;;;;5044956;28;20091;-82
2022/05/29 03:06:56;;;;;;;14.40;2.72;;;10.80;99.90;;;;;;5059300;28;20531;-82
2022/05/29 03:09:44;;;;;;;18.23;2.55;;;10.70;99.90;;;;;;5038000;28;20064;-82
2022/05/29 03:12:25;;;;;;;11.57;2.75;;;10.80;99.90;;;;;;5047245;28;20047;-82
2022/05/29 03:15:23;;;;;;;15.30;3.25;;;10.70;99.90;;;;;;5048979;28;20131;-81
2022/05/29 03:18:16;;;;;;;14.77;3.03;;;10.80;99.90;;;;;;5031031;28;20368;-81
2022/05/29 03:21:07;;;;;;;15.70;3.22;;;10.70;99.90;;;;;;5048018;28;20059;-82
2022/05/29 03:23:51;;;;;;;10.52;2.22;;;10.70;99.90;;;;;;5045919;28;20424;-81
2022/05/29 03:26:26;;;;;;;9.18;1.83;;;10.70;99.90;;;;;;5046359;28;20128;-80
2022/05/29 03:29:09;;;;;;;12.32;2.15;;;10.70;99.90;;;;;;5077319;28;20052;-83
2022/05/29 03:31:37;;;;;;;11.95;2.22;;;10.70;99.90;;;;;;5050174;28;20193;-82
2022/05/29 03:34:04;;;;;;;9.27;2.58;;;10.70;99.90;;;;;;5051793;28;20045;-81
2022/05/29 03:36:30;;;;;;;7.72;1.63;;;10.90;99.90;;;;;;5049665;28;20049;-81
2022/05/29 03:38:56;;;;;;;8.07;1.73;;;10.60;99.90;;;;;;5050086;28;20053;-81
2022/05/29 03:41:45;;;;;;;11.23;1.90;;;10.60;99.90;;;;;;5050211;28;20292;-81
2022/05/29 03:44:16;;;;;;;18.02;2.50;;;10.60;99.90;;;;;;5028459;28;20392;-80
2022/05/29 03:46:44;;;;;;;21.85;2.60;;;10.60;99.90;;;;;;5046030;28;20060;-80
2022/05/29 03:49:15;;;;;;;9.85;2.25;;;10.60;99.90;;;;;;5056320;28;20081;-82
2022/05/29 03:51:41;;;;;;;14.43;2.40;;;10.60;99.90;;;;;;5050297;28;20033;-82
2022/05/29 03:54:08;;;;;;;12.90;2.33;;;10.60;99.90;;;;;;5051713;28;20140;-82
2022/05/29 03:56:34;;;;;;;13.43;1.67;;;10.60;99.90;;;;;;5048292;28;20044;-81
2022/05/29 03:59:00;;;;;;;11.63;2.25;;;10.60;99.90;;;;;;5049873;28;20504;-82
2022/05/29 04:01:26;;;;;;;19.58;2.67;;;10.60;99.90;;;;;;5050255;28;20047;-81
2022/05/29 04:03:53;;;;;;;11.00;2.75;;;10.60;99.90;;;;;;5050437;28;20041;-82
2022/05/29 04:06:27;;;;;;;13.43;2.20;;;10.60;99.90;;;;;;5050276;28;20460;-82
2022/05/29 04:14:33;;;;;;;12.30;2.13;;;10.60;99.90;;;;;;5041341;28;20077;-82
2022/05/29 04:17:00;;;;;;;10.13;2.17;;;10.60;99.90;;;;;;5046395;28;20400;-81
2022/05/29 04:19:26;;;;;;;12.98;2.00;;;10.70;99.90;;;;;;5049050;28;20071;-81
2022/05/29 04:21:52;;;;;;;12.15;2.22;;;10.60;99.90;;;;;;5048370;28;20041;-81
2022/05/29 04:24:19;;;;;;;14.02;2.78;;;10.70;99.90;;;;;;5051446;28;20119;-82
2022/05/29 04:26:48;;;;;;;11.63;2.80;;;10.70;99.90;;;;;;5048911;28;20068;-81
2022/05/29 04:29:15;;;;;;;12.43;2.88;;;10.70;99.90;;;;;;5052895;28;20044;-80
2022/05/29 04:34:37;;;;;;;18.25;3.38;;;10.70;99.90;;;;;;5049057;28;20052;-81
2022/05/29 04:37:04;;;;;;;11.73;2.35;;;10.70;99.90;;;;;;5049645;28;20095;-81
2022/05/29 04:39:34;;;;;;;19.75;3.10;;;10.70;99.90;;;;;;5050311;28;20084;-81
2022/05/29 04:42:00;;;;;;;12.00;1.95;;;10.70;99.90;;;;;;5045923;28;20436;-80
2022/05/29 04:44:26;;;;;;;17.08;2.63;;;10.70;99.90;;;;;;5031054;28;20157;-81
2022/05/29 04:46:51;;;;;;;15.00;2.53;;;10.70;99.90;;;;;;5030811;28;20225;-81
2022/05/29 04:49:17;;;;;;;11.73;2.50;;;10.60;99.90;;;;;;5048039;28;20037;-81
2022/05/29 04:51:42;;;;;;;15.23;2.28;;;10.60;99.90;;;;;;5049740;28;20049;-81
2022/05/29 04:54:08;;;;;;;8.77;2.15;;;10.70;99.90;;;;;;5047060;28;20048;-81
2022/05/29 04:56:37;;;;;;;24.02;2.72;;;10.70;99.90;;;;;;5049863;28;20140;-81
2022/05/29 04:59:03;;;;;;;19.13;2.85;;;10.60;99.90;;;;;;5048937;28;20172;-81
2022/05/29 05:01:28;;;;;;;20.48;2.85;;;10.60;99.90;;;;;;5047693;28;20090;-80
2022/05/29 05:03:54;;;;;;;10.13;2.35;;;10.70;99.90;;;;;;5051212;28;20041;-81
2022/05/29 05:06:20;;;;;;;12.93;3.10;;;10.70;99.90;;;;;;5049750;28;20048;-81
2022/05/29 05:08:45;;;;;;;13.25;2.70;;;10.70;99.90;;;;;;5046512;28;20404;-80
2022/05/29 05:11:11;;;;;;;18.52;2.50;;;10.70;99.90;;;;;;5052269;28;20048;-80
2022/05/29 05:13:37;;;;;;;16.02;3.30;;;10.70;99.90;;;;;;5051850;28;20041;-82
2022/05/29 05:16:04;;;;;;;18.33;2.88;;;10.70;99.90;;;;;;5048416;28;20088;-81
2022/05/29 05:18:29;;;;;;;13.57;3.13;;;10.70;99.90;;;;;;5050216;28;20064;-81
2022/05/29 05:20:55;;;;;;;29.30;3.33;;;10.80;99.90;;;;;;5050145;28;20232;-81
2022/05/29 05:23:21;;;;;;;23.38;3.40;;;10.70;99.90;;;;;;5046728;28;20418;-81
2022/05/29 05:25:46;;;;;;;17.98;3.15;;;10.80;99.90;;;;;;5046863;28;20433;-82
2022/05/29 05:28:12;;;;;;;16.85;3.00;;;10.80;99.90;;;;;;5043486;28;20234;-81
2022/05/29 05:30:38;;;;;;;15.30;2.78;;;10.80;99.90;;;;;;5029363;28;20045;-81
2022/05/29 05:33:03;;;;;;;16.00;2.53;;;10.80;99.90;;;;;;5029629;28;20510;-81
2022/05/29 05:35:29;;;;;;;17.35;2.58;;;10.80;99.90;;;;;;5045046;28;20041;-81
2022/05/29 05:37:56;;;;;;;17.10;2.95;;;10.80;99.90;;;;;;5048013;28;20052;-81
2022/05/29 05:40:22;;;;;;;10.85;2.22;;;10.80;99.90;;;;;;5047785;28;20446;-81
2022/05/29 05:42:48;;;;;;;15.60;2.78;;;10.80;99.90;;;;;;5047825;28;20048;-81
2022/05/29 05:45:16;;;;;;;18.95;2.78;;;10.80;99.90;;;;;;5047382;28;20378;-81
2022/05/29 05:47:42;;;;;;;21.65;3.67;;;10.80;99.90;;;;;;5046645;28;20064;-81
2022/05/29 05:50:09;;;;;;;13.25;3.03;;;10.80;99.90;;;;;;5048025;28;20121;-81
2022/05/29 05:52:36;;;;;;;15.68;2.72;;;10.80;99.90;;;;;;5046011;28;20061;-81
2022/05/29 05:55:06;;;;;;;21.85;2.88;;;10.80;99.90;;;;;;5040786;28;20100;-81
2022/05/29 05:57:32;;;;;;;14.95;2.53;;;10.90;99.90;;;;;;5046374;28;20041;-81
2022/05/29 05:59:58;;;;;;;29.33;4.13;;;10.90;99.90;;;;;;5048919;28;20102;-81
2022/05/29 06:02:23;;;;;;;16.27;3.00;;;10.90;99.90;;;;;;5046092;28;20045;-81
2022/05/29 06:04:50;;;;;;;14.13;2.88;;;11.00;99.90;;;;;;5047439;28;20203;-81
2022/05/29 06:07:15;;;;;;;15.68;2.65;;;11.00;99.90;;;;;;5049664;28;20525;-80
2022/05/29 06:09:41;;;;;;;14.48;2.65;;;11.10;99.90;;;;;;5049350;28;20087;-81
2022/05/29 06:12:07;;;;;;;13.02;2.00;;;11.10;99.90;;;;;;5048438;28;20049;-80
2022/05/29 06:14:34;;;;;;;16.80;1.63;;;11.20;99.90;;;;;;5048280;28;20052;-79
2022/05/29 06:17:01;;;;;;;13.02;2.28;;;11.20;99.90;;;;;;5047661;28;20405;-80
2022/05/29 06:19:26;;;;;;;8.55;1.60;;;11.20;99.90;;;;;;5048178;28;20044;-81
2022/05/29 06:21:52;;;;;;;13.25;2.20;;;11.20;99.90;;;;;;5048345;28;20044;-80
2022/05/29 06:24:18;;;;;;;14.73;2.28;;;11.20;99.90;;;;;;5043596;28;20056;-81
2022/05/29 06:26:43;;;;;;;10.25;2.13;;;11.20;99.90;;;;;;5045610;28;20094;-81
2022/05/29 06:29:09;;;;;;;9.75;1.77;;;11.20;99.90;;;;;;5046994;28;20122;-81
2022/05/29 06:31:35;;;;;;;12.68;2.03;;;11.30;99.90;;;;;;5047333;28;20492;-80
2022/05/29 06:34:01;;;;;;;8.98;1.70;;;11.30;99.90;;;;;;5046995;28;20049;-80
2022/05/29 06:36:30;;;;;;;9.45;1.38;;;11.30;99.90;;;;;;5047758;28;20128;-80
2022/05/29 06:38:57;;;;;;;11.60;2.25;;;11.30;99.90;;;;;;5048049;28;20051;-79
2022/05/29 06:41:29;;;;;;;9.25;1.55;;;11.30;99.90;;;;;;5044679;28;20049;-81
2022/05/29 06:44:00;;;;;;;13.63;2.13;;;11.30;99.90;;;;;;5039013;28;20461;-80
2022/05/29 06:46:26;;;;;;;12.82;2.08;;;11.20;99.90;;;;;;5044728;28;20125;-80
2022/05/29 06:48:52;;;;;;;9.57;1.98;;;11.20;99.90;;;;;;5033960;28;20272;-80
2022/05/29 06:51:21;;;;;;;10.88;1.83;;;11.20;99.90;;;;;;5033593;28;20099;-81
2022/05/29 06:53:49;;;;;;;8.43;1.58;;;11.20;99.90;;;;;;5047177;28;20131;-80
2022/05/29 06:56:16;;;;;;;12.60;2.65;;;11.20;99.90;;;;;;5040590;28;20114;-80
2022/05/29 06:58:41;;;;;;;22.35;2.95;;;11.20;99.90;;;;;;5032900;28;20439;-80
2022/05/29 07:06:59;;;;;;;18.48;2.25;;;11.10;99.90;;;;;;5039898;28;20144;-80
2022/05/29 07:09:25;;;;;;;12.00;2.05;;;11.10;99.90;;;;;;5054176;28;20232;-80
2022/05/29 07:12:00;;;;;;;10.82;1.70;;;11.10;99.90;;;;;;5052467;28;20127;-80
2022/05/29 07:14:26;;;;;;;11.35;1.73;;;11.10;99.90;;;;;;5053033;28;20037;-79
2022/05/29 07:16:52;;;;;;;14.65;2.50;;;11.00;99.90;;;;;;5051825;28;20044;-79
2022/05/29 07:19:20;;;;;;;8.75;1.90;;;11.00;99.90;;;;;;5053463;28;20473;-81
2022/05/29 07:21:46;;;;;;;21.23;2.40;;;11.00;99.90;;;;;;5046877;28;20047;-80
2022/05/29 07:24:12;;;;;;;7.90;1.95;;;11.00;99.90;;;;;;5052406;28;20044;-80
2022/05/29 07:26:38;;;;;;;9.55;1.92;;;10.90;99.90;;;;;;5050507;28;20041;-80
2022/05/29 07:29:04;;;;;;;16.30;2.78;;;10.90;99.90;;;;;;5050322;28;20056;-79
2022/05/29 07:31:30;;;;;;;8.85;2.45;;;10.80;99.90;;;;;;5049501;28;20044;-80
2022/05/29 07:33:56;;;;;;;10.05;2.05;;;10.80;99.90;;;;;;5052230;28;20094;-80
2022/05/29 07:36:24;;;;;;;9.70;1.83;;;10.80;99.90;;;;;;5050162;28;20058;-80
2022/05/29 07:38:50;;;;;;;15.45;2.33;;;10.90;99.90;;;;;;5040807;28;20055;-81
2022/05/29 07:44:00;;;;;;;12.35;1.70;;;10.90;99.90;;;;;;5049142;28;20045;-79
2022/05/29 07:46:25;;;;;;;12.15;2.35;;;11.00;99.90;;;;;;5046553;28;20156;-80
2022/05/29 07:48:52;;;;;;;6.82;1.42;;;11.00;99.90;;;;;;5044475;28;20053;-81
2022/05/29 07:51:18;;;;;;;4.47;1.02;;;11.00;99.90;;;;;;5044906;28;20144;-80
2022/05/29 07:53:44;;;;;;;9.25;1.27;;;11.00;99.90;;;;;;5067086;28;20147;-80
2022/05/29 07:56:10;;;;;;;11.82;1.50;;;11.10;99.90;;;;;;5044791;28;20610;-79
2022/05/29 07:58:40;;;;;;;8.40;1.10;;;11.10;99.90;;;;;;5050836;28;20055;-79
2022/05/29 08:01:06;;;;;;;10.65;1.88;;;11.10;99.90;;;;;;5053505;28;20041;-80
2022/05/29 08:03:32;;;;;;;6.97;1.38;;;11.20;99.90;;;;;;5049644;28;20044;-80
2022/05/29 08:05:57;;;;;;;7.20;1.85;;;11.20;99.90;;;;;;5056352;28;20078;-80
2022/05/29 08:08:24;;;;;;;6.82;1.10;;;11.20;99.90;;;;;;5061384;28;20069;-80
2022/05/29 08:10:50;;;;;;;8.68;1.38;;;11.20;99.90;;;;;;5048790;28;20040;-80
2022/05/29 08:13:16;;;;;;;7.15;1.58;;;11.20;99.90;;;;;;5049951;28;20091;-80
2022/05/29 08:15:42;;;;;;;7.35;1.60;;;11.20;99.90;;;;;;5046314;28;20045;-80
2022/05/29 08:18:09;;;;;;;13.32;1.90;;;11.20;99.90;;;;;;5037470;28;20072;-79
2022/05/29 08:20:36;;;;;;;8.07;1.70;;;11.30;99.90;;;;;;5047804;28;20064;-80
2022/05/29 08:23:03;;;;;;;6.00;1.73;;;11.20;99.90;;;;;;5044776;28;20056;-79
2022/05/29 08:30:58;;;;;;;9.13;1.92;;;11.10;99.90;;;;;;5039681;28;20038;-81
2022/05/29 08:33:26;;;;;;;6.93;1.50;;;11.20;99.90;;;;;;5047991;28;20051;-81
2022/05/29 08:36:22;;;;;;;13.13;1.90;;;11.10;99.90;;;;;;5044541;28;20127;-80
2022/05/29 08:38:51;;;;;;;9.43;1.92;;;11.20;99.90;;;;;;5037221;28;20393;-79
2022/05/29 08:41:33;;;;;;;13.38;1.85;;;11.20;99.90;;;;;;5076235;28;20049;-79
2022/05/29 08:44:16;;;;;;;10.77;1.60;;;11.30;99.90;;;;;;5051104;28;20467;-78
2022/05/29 08:46:53;;;;;;;11.65;1.90;;;11.30;99.90;;;;;;5045346;28;20473;-79
2022/05/29 08:49:28;;;;;;;11.13;1.85;;;11.40;99.90;;;;;;5049926;28;20041;-80
2022/05/29 08:51:57;;;;;;;9.70;1.80;;;11.50;99.90;;;;;;5041939;28;20126;-79
2022/05/29 08:54:46;;;;;;;8.13;1.23;;;11.40;99.90;;;;;;5043877;28;20388;-79
2022/05/29 08:57:49;;;;;;;6.63;1.25;;;11.50;99.90;;;;;;5043095;28;20392;-79
2022/05/29 09:00:29;;;;;;;4.53;1.23;;;11.50;99.90;;;;;;5047894;28;20049;-79
2022/05/29 09:03:25;;;;;;;6.80;1.02;;;11.50;99.90;;;;;;5042071;28;20032;-79
2022/05/29 09:05:58;;;;;;;13.30;2.05;;;11.50;99.90;;;;;;5042338;28;20085;-78
2022/05/29 09:08:41;;;;;;;38.60;2.83;;;11.50;99.90;;;;;;5040885;28;20392;-80
2022/05/29 09:11:16;;;;;;;7.82;1.20;;;11.50;99.90;;;;;;5047967;28;20453;-80
2022/05/29 09:13:55;;;;;;;9.85;1.50;;;11.60;99.90;;;;;;5050325;28;20468;-79
2022/05/29 09:16:27;;;;;;;10.23;1.50;;;11.60;99.90;;;;;;5044863;28;20373;-79
2022/05/29 09:19:08;;;;;;;10.63;1.23;;;11.50;99.90;;;;;;5050624;28;20413;-79
2022/05/29 09:22:02;;;;;;;12.77;2.07;;;11.50;99.90;;;;;;5042643;28;20060;-79
2022/05/29 09:24:59;;;;;;;5.63;1.30;;;11.50;99.90;;;;;;5076687;28;20307;-79
2022/05/29 09:27:26;;;;;;;8.65;1.77;;;11.40;99.90;;;;;;5041868;28;20501;-79
2022/05/29 09:29:52;;;;;;;10.65;1.23;;;11.40;99.90;;;;;;5046120;28;20076;-79
2022/05/29 09:32:25;;;;;;;8.27;1.17;;;11.50;99.90;;;;;;5045925;28;20044;-79
2022/05/29 09:35:01;;;;;;;10.93;1.65;;;11.50;99.90;;;;;;5049204;28;20114;-81
2022/05/29 09:38:00;;;;;;;8.48;1.38;;;11.60;99.90;;;;;;5045516;28;20082;-80
2022/05/29 09:41:01;;;;;;;12.73;1.58;;;11.60;99.90;;;;;;5020292;28;20123;-81
2022/05/29 09:43:29;;;;;;;6.65;1.52;;;11.70;99.90;;;;;;5024643;28;20369;-79
2022/05/29 09:45:55;;;;;;;11.55;1.63;;;11.70;99.90;;;;;;5040787;28;20050;-81
2022/05/29 09:51:31;;;;;;;22.15;1.75;;;11.80;99.90;;;;;;5043154;28;20045;-80
2022/05/29 09:54:02;;;;;;;9.20;1.63;;;12.00;99.90;;;;;;5051379;28;20118;-79
2022/05/29 09:56:32;;;;;;;9.45;1.15;;;12.00;99.90;;;;;;5044401;28;20580;-81
2022/05/29 09:59:14;;;;;;;11.20;1.52;;;12.10;99.90;;;;;;5046132;28;20122;-81
2022/05/29 10:01:45;;;;;;;11.82;1.65;;;12.20;99.90;;;;;;5039655;28;20060;-79
2022/05/29 10:04:23;;;;;;;8.65;1.30;;;12.10;99.90;;;;;;5041818;28;20041;-80
2022/05/29 10:06:58;;;;;;;9.00;1.42;;;12.10;99.90;;;;;;5041749;28;20083;-80
2022/05/29 10:09:26;;;;;;;9.02;1.70;;;12.10;99.90;;;;;;5041028;28;20037;-80
2022/05/29 10:12:16;;;;;;;10.15;2.65;;;12.10;99.90;;;;;;5044585;28;20068;-80
2022/05/29 10:14:44;;;;;;;6.13;1.40;;;12.00;99.90;;;;;;5035799;28;20385;-81
2022/05/29 10:17:33;;;;;;;17.70;1.67;;;12.00;99.90;;;;;;5046298;28;20052;-81
2022/05/29 10:19:59;;;;;;;17.83;1.85;;;11.90;99.90;;;;;;5047207;28;20045;-79
2022/05/29 10:22:36;;;;;;;12.10;3.45;;;11.90;99.90;;;;;;5040173;28;20044;-78
2022/05/29 10:25:14;;;;;;;14.38;1.58;;;12.00;99.90;;;;;;5042398;28;20528;-78
2022/05/29 10:27:40;;;;;;;12.98;1.95;;;12.00;99.90;;;;;;5043231;28;20096;-79
2022/05/29 10:30:12;;;;;;;11.13;1.73;;;12.00;99.90;;;;;;5048580;28;20044;-79
2022/05/29 10:32:42;;;;;;;7.97;1.60;;;12.00;99.90;;;;;;5044734;28;20045;-79
2022/05/29 10:35:17;;;;;;;7.78;1.33;;;12.20;99.90;;;;;;5062897;28;20186;-79
2022/05/29 10:37:46;;;;;;;9.60;1.67;;;12.20;99.90;;;;;;5054655;28;20479;-78
2022/05/29 10:40:13;;;;;;;13.10;2.00;;;12.30;99.90;;;;;;5059306;28;20087;-78
2022/05/29 10:42:49;;;;;;;10.32;2.47;;;12.40;99.90;;;;;;5042353;28;20411;-78
2022/05/29 10:45:24;;;;;;;8.30;1.52;;;12.40;99.90;;;;;;5028038;28;20056;-78
2022/05/29 10:48:02;;;;;;;8.82;1.65;;;12.30;99.90;;;;;;5044392;28;20048;-78
2022/05/29 10:51:00;;;;;;;11.18;1.90;;;12.20;99.90;;;;;;5045611;28;20040;-79
2022/05/29 10:54:02;;;;;;;13.07;1.45;;;12.10;99.90;;;;;;5044343;28;20057;-78
2022/05/29 10:57:00;;;;;;;11.98;1.88;;;12.10;99.90;;;;;;5039260;28;20477;-79
2022/05/29 11:00:01;;;;;;;14.25;1.63;;;12.10;99.90;;;;;;5069084;28;20136;-78
2022/05/29 11:05:48;;;;;;;9.65;1.90;;;12.20;99.90;;;;;;5072726;28;20560;-79
2022/05/29 11:08:22;;;;;;;8.98;1.58;;;12.20;99.90;;;;;;5041726;28;20080;-78
2022/05/29 11:11:30;;;;;;;9.52;1.58;;;12.30;99.90;;;;;;5039326;28;20136;-78
2022/05/29 11:14:18;;;;;;;12.60;1.83;;;12.30;99.90;;;;;;5042122;28;20052;-78
2022/05/29 11:16:52;;;;;;;12.90;2.08;;;12.30;99.90;;;;;;5046921;28;20056;-78
2022/05/29 11:19:46;;;;;;;10.00;1.77;;;12.30;99.90;;;;;;5047901;28;20118;-78
2022/05/29 11:22:20;;;;;;;15.80;2.47;;;12.40;99.90;;;;;;5044423;28;20059;-78
2022/05/29 11:25:12;;;;;;;12.30;2.10;;;12.30;99.90;;;;;;5030383;28;20067;-78
2022/05/29 11:27:57;;;;;;;12.65;1.42;;;12.30;99.90;;;;;;5045321;28;20084;-79
2022/05/29 11:31:02;;;;;;;13.43;2.15;;;12.30;99.90;;;;;;5049080;28;20060;-78
2022/05/29 11:33:53;;;;;;;12.48;1.70;;;12.30;99.90;;;;;;5034889;28;20049;-78
2022/05/29 11:37:09;;;;;;;11.77;2.03;;;12.40;99.90;;;;;;5044718;28;20389;-79
2022/05/29 11:39:46;;;;;;;13.15;1.92;;;12.50;99.90;;;;;;5009823;28;20042;-78
2022/05/29 11:42:18;;;;;;;7.40;2.00;;;12.50;99.90;;;;;;4988719;28;20088;-78
2022/05/29 11:44:47;;;;;;;8.27;1.55;;;12.60;99.90;;;;;;5021041;28;20053;-79
2022/05/29 11:53:28;;;;;;;11.02;2.00;;;12.70;99.90;;;;;;5048609;28;20082;-78
2022/05/29 11:55:58;;;;;;;9.70;1.48;;;12.70;99.90;;;;;;5050200;28;20087;-78
2022/05/29 11:58:44;;;;;;;10.82;2.28;;;12.60;99.90;;;;;;5051287;28;20186;-77
2022/05/29 12:01:29;;;;;;;7.32;1.52;;;12.60;99.90;;;;;;5050045;28;20052;-77
2022/05/29 12:03:59;;;;;;;20.27;2.58;;;12.40;99.90;;;;;;5042318;28;20053;-78
2022/05/29 12:06:47;;;;;;;9.27;1.50;;;12.70;99.90;;;;;;5029360;28;20548;-78
2022/05/29 12:09:23;;;;;;;13.63;1.70;;;12.20;99.90;;;;;;5045943;28;20071;-77
2022/05/29 12:11:59;;;;;;;7.97;1.77;;;12.20;99.90;;;;;;5049323;28;20049;-77
2022/05/29 12:14:53;;;;;;;7.18;1.27;;;12.10;99.90;;;;;;5047366;28;20133;-78
2022/05/29 12:17:30;;;;;;;10.23;1.70;;;12.10;99.90;;;;;;5047609;28;20071;-77
2022/05/29 12:19:58;;;;;;;10.13;1.63;;;12.10;99.90;;;;;;5050756;28;20477;-78
2022/05/29 12:22:37;;;;;;;6.10;1.20;;;12.10;99.90;;;;;;5049684;28;20155;-78
2022/05/29 12:25:10;;;;;;;8.45;1.40;;;12.10;99.90;;;;;;5050977;28;20061;-78
2022/05/29 12:27:36;;;;;;;7.90;1.50;;;12.10;99.90;;;;;;5049848;28;20067;-78
2022/05/29 12:30:11;;;;;;;16.63;1.75;;;12.10;99.90;;;;;;5051498;28;20060;-78
2022/05/29 12:32:37;;;;;;;10.75;2.38;;;12.10;99.90;;;;;;5048337;28;20132;-78
2022/05/29 12:35:20;;;;;;;8.05;1.50;;;12.00;99.90;;;;;;5050785;28;20148;-77
2022/05/29 12:38:20;;;;;;;10.45;1.70;;;12.00;99.90;;;;;;5036549;28;20470;-79
2022/05/29 12:41:04;;;;;;;10.98;2.47;;;12.00;99.90;;;;;;5042330;28;20457;-78
2022/05/29 12:43:48;;;;;;;14.48;2.03;;;12.00;99.90;;;;;;5037771;28;20053;-78
2022/05/29 12:46:30;;;;;;;9.50;1.52;;;12.00;99.90;;;;;;5048039;28;20045;-79
2022/05/29 12:49:09;;;;;;;;;;;12.10;99.90;;;;;;5047156;28;20203;-78
2022/05/29 12:51:59;;;;;;;11.65;1.95;;;12.20;99.90;;;;;;5037807;28;19950;-78
2022/05/29 12:54:39;;;;;;;12.82;1.60;;;12.30;99.90;;;;;;5049695;28;20439;-77
2022/05/29 12:57:06;;;;;;;9.00;1.58;;;12.40;99.90;;;;;;5049555;28;20408;-77
2022/05/29 12:59:57;;;;;;;11.98;1.77;;;12.40;99.90;;;;;;5049997;28;20052;-78
2022/05/29 13:02:58;;;;;;;8.10;1.23;;;12.50;99.90;;;;;;5050438;28;20045;-78
2022/05/29 13:05:32;;;;;;;;;;;12.50;99.90;;;;;;5051320;28;20051;-78
2022/05/29 13:08:01;;;;;;;10.88;1.65;;;12.50;99.90;;;;;;5048385;28;19921;-78
2022/05/29 13:10:47;;;;;;;8.75;1.70;;;12.50;99.90;;;;;;5050593;28;20083;-78
2022/05/29 13:13:20;;;;;;;13.57;2.00;;;12.60;99.90;;;;;;5047079;28;20052;-80
2022/05/29 13:15:47;;;;;;;19.05;1.83;;;12.70;99.90;;;;;;5040491;28;20037;-78
2022/05/29 13:21:07;;;;;;;13.07;2.05;;;12.80;99.90;;;;;;5047016;28;20041;-78
2022/05/29 13:23:51;;;;;;;14.73;2.38;;;12.80;99.90;;;;;;5043513;28;20041;-78
2022/05/29 13:26:24;;;;;;;12.20;2.00;;;12.90;99.90;;;;;;5050079;28;20143;-78
2022/05/29 13:29:03;;;;;;;12.40;1.70;;;12.90;99.90;;;;;;5049584;28;20049;-77
2022/05/29 13:31:32;;;;;;;12.27;2.20;;;12.90;99.90;;;;;;5048366;28;20045;-77
2022/05/29 13:34:24;;;;;;;12.68;1.65;;;12.90;99.90;;;;;;5048617;28;20102;-79
2022/05/29 13:36:53;;;;;;;15.13;1.70;;;12.90;99.90;;;;;;5045524;28;20041;-77
2022/05/29 13:39:22;;;;;;;12.57;2.08;;;12.80;99.90;;;;;;5048896;28;20461;-77
2022/05/29 13:42:15;;;;;;;13.30;1.88;;;12.90;99.90;;;;;;5049078;28;20032;-79
2022/05/29 13:44:42;;;;;;;13.15;1.92;;;12.90;99.90;;;;;;5050031;28;20120;-78
2022/05/29 13:47:26;;;;;;;9.70;1.75;;;13.00;99.90;;;;;;5046333;28;20795;-78
2022/05/29 13:50:15;;;;;;;6.95;1.80;;;13.00;99.90;;;;;;5036240;28;20090;-79
2022/05/29 13:52:55;;;;;;;9.45;2.13;;;13.10;99.90;;;;;;5046811;28;20071;-79
2022/05/29 13:55:24;;;;;;;14.20;2.13;;;13.10;99.90;;;;;;5049839;28;20079;-79